Time;durP1;ratioP1;P1;durP2;ratioP2;P2;SDS_P1;SDS_P2;PMS_P1;PMS_P2;Temp;Humidity;BMP_temperature;BMP_pressure;BME280_temperature;BME280_humidity;BME280_pressure;Samples;Min_cycle;Max_cycle;Signal;HPM_P1;HPM_P2
2022/08/27 00:02:07;;;;;;;18.13;9.68;;;;;;;21.90;100.00;99844.56;5051681;28;20112;-65
2022/08/27 00:04:34;;;;;;;20.35;10.35;;;;;;;21.90;100.00;99842.75;5052180;28;20021;-62
2022/08/27 00:07:00;;;;;;;19.45;10.45;;;;;;;21.85;100.00;99838.69;5052066;28;20043;-61
2022/08/27 00:09:26;;;;;;;23.38;10.20;;;;;;;21.83;100.00;99835.22;5053228;28;20029;-63
2022/08/27 00:11:51;;;;;;;18.65;9.48;;;;;;;21.83;100.00;99843.34;5052005;28;20036;-63
2022/08/27 00:14:17;;;;;;;15.88;9.48;;;;;;;21.80;100.00;99847.19;5052050;28;20040;-63
2022/08/27 00:16:43;;;;;;;16.40;8.90;;;;;;;21.75;100.00;99853.91;5051669;28;20035;-62
2022/08/27 00:19:08;;;;;;;16.92;8.93;;;;;;;21.77;100.00;99854.69;5052092;28;20033;-61
2022/08/27 00:21:33;;;;;;;20.55;9.35;;;;;;;21.76;100.00;99855.66;5051947;28;20028;-62
2022/08/27 00:24:00;;;;;;;19.05;10.93;;;;;;;21.77;100.00;99849.28;5051927;28;20025;-62
2022/08/27 00:26:25;;;;;;;15.70;9.57;;;;;;;21.77;100.00;99851.97;5051887;28;20060;-62
2022/08/27 00:28:51;;;;;;;18.33;10.38;;;;;;;21.74;100.00;99852.19;5051851;28;20432;-61
2022/08/27 00:31:16;;;;;;;17.08;9.82;;;;;;;21.72;100.00;99860.44;5051477;28;20021;-62
2022/08/27 00:33:42;;;;;;;19.10;10.98;;;;;;;21.77;100.00;99860.09;5051785;28;20464;-63
2022/08/27 00:36:10;;;;;;;17.00;10.68;;;;;;;21.73;100.00;99855.91;5051954;28;20472;-63
2022/08/27 00:38:37;;;;;;;22.45;10.40;;;;;;;21.63;100.00;99849.50;5050250;28;20031;-63
2022/08/27 00:41:04;;;;;;;19.55;11.23;;;;;;;21.67;100.00;99861.78;5051680;28;20067;-62
2022/08/27 00:44:02;;;;;;;16.33;10.60;;;;;;;21.67;100.00;99857.25;5050503;28;20025;-63
2022/08/27 00:46:48;;;;;;;17.05;10.63;;;;;;;21.65;100.00;99851.09;5045682;28;20037;-63
2022/08/27 00:49:23;;;;;;;20.10;10.90;;;;;;;21.62;100.00;99853.19;5029813;28;20056;-63
2022/08/27 00:51:56;;;;;;;17.40;10.73;;;;;;;21.60;100.00;99849.72;5038308;28;20116;-62
2022/08/27 00:54:22;;;;;;;19.30;10.38;;;;;;;21.67;100.00;99850.97;5049724;28;20087;-63
2022/08/27 00:56:48;;;;;;;19.15;11.30;;;;;;;21.64;100.00;99846.69;5049559;28;20040;-63
2022/08/27 00:59:15;;;;;;;17.90;11.07;;;;;;;21.65;100.00;99850.22;5051016;28;20140;-63
2022/08/27 01:04:31;;;;;;;16.42;10.82;;;;;;;21.68;100.00;99842.72;5031535;28;20813;-68
2022/08/27 01:06:58;;;;;;;17.02;10.43;;;;;;;21.68;100.00;99842.72;5031182;28;20036;-67
2022/08/27 01:09:24;;;;;;;16.85;10.57;;;;;;;21.68;100.00;99840.00;5031352;28;20112;-68
2022/08/27 01:11:51;;;;;;;19.30;11.23;;;;;;;21.67;100.00;99842.84;5031362;28;20496;-68
2022/08/27 01:14:18;;;;;;;21.33;13.07;;;;;;;21.68;100.00;99839.16;5031350;28;20061;-68
2022/08/27 01:16:49;;;;;;;18.30;11.05;;;;;;;21.66;100.00;99839.25;5031345;28;20144;-68
2022/08/27 01:19:27;;;;;;;19.48;11.20;;;;;;;21.69;100.00;99846.28;5031121;28;20109;-67
2022/08/27 01:22:04;;;;;;;17.58;11.70;;;;;;;21.66;100.00;99843.84;5031273;28;20102;-67
2022/08/27 01:24:37;;;;;;;22.50;11.68;;;;;;;21.63;100.00;99844.94;5046068;28;20074;-67
2022/08/27 01:27:07;;;;;;;20.17;12.32;;;;;;;21.61;100.00;99851.47;5053403;28;20409;-67
2022/08/27 01:29:33;;;;;;;19.73;11.38;;;;;;;21.60;100.00;99844.31;5050768;28;20040;-67
2022/08/27 01:32:12;;;;;;;21.63;12.07;;;;;;;21.62;100.00;99845.06;5051203;28;20040;-68
2022/08/27 01:34:37;;;;;;;22.15;12.98;;;;;;;21.63;100.00;99841.38;5051079;28;20029;-67
2022/08/27 01:37:05;;;;;;;22.95;12.18;;;;;;;21.66;100.00;99844.69;5050951;28;20430;-67
2022/08/27 01:39:32;;;;;;;21.95;12.55;;;;;;;21.72;100.00;99856.88;5051176;28;20163;-67
2022/08/27 01:42:05;;;;;;;20.50;13.27;;;;;;;21.73;100.00;99850.50;5051138;28;20032;-66
2022/08/27 01:44:49;;;;;;;23.40;12.48;;;;;;;21.72;100.00;99855.03;5054415;28;20025;-67
2022/08/27 01:47:16;;;;;;;20.17;11.55;;;;;;;21.74;100.00;99844.94;5051332;28;20032;-67
2022/08/27 01:49:42;;;;;;;20.02;11.43;;;;;;;21.76;100.00;99840.28;5051488;28;20388;-67
2022/08/27 01:52:07;;;;;;;22.60;11.63;;;;;;;21.76;100.00;99842.13;5051041;28;20024;-67
2022/08/27 01:54:33;;;;;;;21.13;12.10;;;;;;;21.71;100.00;99831.63;5050453;28;20557;-67
2022/08/27 01:56:58;;;;;;;22.70;12.02;;;;;;;21.70;100.00;99823.63;5050814;28;20147;-67
2022/08/27 01:59:24;;;;;;;24.15;11.93;;;;;;;21.66;100.00;99817.59;5051221;28;20112;-67
2022/08/27 02:01:50;;;;;;;21.67;11.13;;;;;;;21.62;100.00;99826.09;5053079;28;20381;-67
2022/08/27 02:04:16;;;;;;;18.75;11.00;;;;;;;21.59;100.00;99827.22;5056050;28;20473;-67
2022/08/27 02:06:41;;;;;;;19.77;11.05;;;;;;;21.55;100.00;99825.75;5055524;28;20104;-67
2022/08/27 02:09:07;;;;;;;20.85;12.10;;;;;;;21.44;100.00;99827.59;5054991;28;20443;-68
2022/08/27 02:11:32;;;;;;;20.13;11.95;;;;;;;21.42;100.00;99825.00;5055407;28;20100;-67
2022/08/27 02:13:58;;;;;;;18.60;11.60;;;;;;;21.39;100.00;99825.25;5055395;28;20503;-68
2022/08/27 02:16:23;;;;;;;18.42;11.50;;;;;;;21.34;100.00;99816.66;5055982;28;20495;-67
2022/08/27 02:18:49;;;;;;;20.98;11.50;;;;;;;21.30;100.00;99825.13;5058834;28;20021;-67
2022/08/27 02:21:14;;;;;;;18.58;10.45;;;;;;;21.27;100.00;99825.38;5055505;28;20025;-67
2022/08/27 02:23:41;;;;;;;21.55;11.68;;;;;;;21.29;100.00;99823.41;5054448;28;20026;-68
2022/08/27 02:26:07;;;;;;;20.08;11.60;;;;;;;21.28;100.00;99821.69;5055434;28;20067;-67
2022/08/27 02:28:33;;;;;;;22.50;11.52;;;;;;;21.21;100.00;99826.72;5054941;28;20029;-68
2022/08/27 02:30:59;;;;;;;20.25;11.90;;;;;;;21.14;100.00;99808.38;5054914;28;20036;-67
2022/08/27 02:33:25;;;;;;;20.70;11.88;;;;;;;21.27;100.00;99817.25;5054502;28;20053;-67
2022/08/27 02:35:51;;;;;;;21.42;12.15;;;;;;;21.27;100.00;99820.81;5054670;28;20056;-68
2022/08/27 02:38:16;;;;;;;21.52;12.23;;;;;;;21.31;100.00;99821.44;5054417;28;20056;-67
2022/08/27 02:40:42;;;;;;;19.95;11.68;;;;;;;21.33;100.00;99814.94;5055077;28;20108;-68
2022/08/27 02:43:08;;;;;;;19.83;12.27;;;;;;;21.36;100.00;99808.41;5054475;28;20442;-68
2022/08/27 02:45:35;;;;;;;23.05;12.73;;;;;;;21.39;100.00;99818.97;5054025;28;20024;-67
2022/08/27 02:48:01;;;;;;;20.85;12.63;;;;;;;21.40;100.00;99820.72;5054115;28;20155;-68
2022/08/27 02:50:26;;;;;;;21.55;11.77;;;;;;;21.40;100.00;99804.47;5053936;28;20474;-68
2022/08/27 02:52:52;;;;;;;23.98;12.40;;;;;;;21.43;100.00;99798.81;5052955;28;20049;-68
2022/08/27 02:55:17;;;;;;;21.65;12.40;;;;;;;21.44;100.00;99800.53;5053019;28;20432;-67
2022/08/27 02:57:43;;;;;;;21.80;12.23;;;;;;;21.42;100.00;99803.34;5053631;28;20368;-67
2022/08/27 03:00:13;;;;;;;19.98;11.52;;;;;;;21.43;100.00;99796.09;5052351;28;20032;-67
2022/08/27 03:02:38;;;;;;;23.35;13.02;;;;;;;21.46;100.00;99798.56;5052676;28;20187;-67
2022/08/27 03:05:05;;;;;;;24.85;13.00;;;;;;;21.45;100.00;99796.84;5053098;28;20677;-68
2022/08/27 03:07:31;;;;;;;21.63;13.02;;;;;;;21.45;100.00;99796.84;5052954;28;20082;-68
2022/08/27 03:09:56;;;;;;;21.38;12.27;;;;;;;21.46;100.00;99787.75;5054139;28;20025;-68
2022/08/27 03:12:23;;;;;;;24.85;14.35;;;;;;;21.48;100.00;99788.47;5053651;28;20432;-67
2022/08/27 03:14:48;;;;;;;25.35;12.63;;;;;;;21.49;100.00;99787.47;5053590;28;20025;-68
2022/08/27 03:19:58;;;;;;;27.35;14.07;;;;;;;21.48;100.00;99796.59;5054080;28;20132;-68
2022/08/27 03:22:24;;;;;;;24.35;13.40;;;;;;;21.51;100.00;99801.75;5054210;28;20087;-67
2022/08/27 03:24:50;;;;;;;20.88;12.65;;;;;;;21.46;100.00;99799.44;5053726;28;20025;-68
2022/08/27 03:27:15;;;;;;;21.45;12.60;;;;;;;21.53;100.00;99806.06;5056211;28;20025;-67
2022/08/27 03:29:41;;;;;;;23.73;12.88;;;;;;;21.47;100.00;99805.69;5053092;28;20021;-68
2022/08/27 03:32:06;;;;;;;22.77;12.10;;;;;;;21.46;100.00;99812.09;5054245;28;20509;-68
2022/08/27 03:34:32;;;;;;;22.10;13.32;;;;;;;21.47;100.00;99821.91;5055022;28;20029;-68
2022/08/27 03:36:59;;;;;;;24.10;13.50;;;;;;;21.40;100.00;99805.31;5055354;28;20059;-67
2022/08/27 03:39:24;;;;;;;23.95;12.68;;;;;;;21.41;100.00;99822.44;5054787;28;20045;-67
2022/08/27 03:41:50;;;;;;;24.88;12.88;;;;;;;21.43;100.00;99815.06;5054144;28;20164;-67
2022/08/27 03:44:16;;;;;;;25.73;13.68;;;;;;;21.40;100.00;99818.84;5053632;28;20025;-67
2022/08/27 03:46:41;;;;;;;20.77;12.20;;;;;;;21.37;100.00;99812.81;5054001;28;20151;-67
2022/08/27 03:49:07;;;;;;;22.75;13.13;;;;;;;21.34;100.00;99815.78;5060236;28;20023;-68
2022/08/27 03:51:32;;;;;;;22.73;13.65;;;;;;;21.35;100.00;99814.81;5073357;28;20028;-68
2022/08/27 03:53:58;;;;;;;22.65;12.50;;;;;;;21.38;100.00;99822.69;5061706;28;20873;-67
2022/08/27 03:56:24;;;;;;;27.02;13.85;;;;;;;21.30;100.00;99825.13;5052979;28;20076;-67
2022/08/27 03:58:49;;;;;;;25.00;14.25;;;;;;;21.27;100.00;99819.97;5052714;28;20020;-68
2022/08/27 04:01:16;;;;;;;26.80;13.85;;;;;;;21.27;100.00;99828.09;5052776;28;20025;-67
2022/08/27 04:03:43;;;;;;;29.48;14.15;;;;;;;21.26;100.00;99829.06;5052231;28;20024;-67
2022/08/27 04:06:08;;;;;;;25.40;12.70;;;;;;;21.24;100.00;99822.91;5053407;28;20412;-67
2022/08/27 04:08:34;;;;;;;23.92;12.48;;;;;;;21.26;100.00;99834.47;5052991;28;20021;-67
2022/08/27 04:11:04;;;;;;;23.77;12.45;;;;;;;21.28;100.00;99829.81;5052601;28;20048;-68
2022/08/27 04:13:30;;;;;;;25.10;13.43;;;;;;;21.29;100.00;99831.50;5052643;28;20029;-67
2022/08/27 04:15:55;;;;;;;25.35;13.52;;;;;;;21.28;100.00;99827.97;5052284;28;20391;-68
2022/08/27 04:18:21;;;;;;;29.58;14.02;;;;;;;21.29;100.00;99832.38;5052687;28;20468;-68
2022/08/27 04:20:49;;;;;;;23.00;12.73;;;;;;;21.30;100.00;99834.09;5054865;28;20100;-68
2022/08/27 04:23:15;;;;;;;23.90;13.63;;;;;;;21.33;100.00;99824.88;5051597;28;20025;-68
2022/08/27 04:25:42;;;;;;;22.92;12.50;;;;;;;21.34;100.00;99827.47;5049881;28;20029;-67
2022/08/27 04:28:09;;;;;;;22.08;12.98;;;;;;;21.37;100.00;99831.75;5050659;28;20021;-68
2022/08/27 04:30:43;;;;;;;21.58;12.80;;;;;;;21.47;100.00;99828.22;5050501;28;20029;-68
2022/08/27 04:33:09;;;;;;;24.83;14.30;;;;;;;21.50;100.00;99824.41;5050697;28;20044;-68
2022/08/27 04:35:35;;;;;;;26.25;14.25;;;;;;;21.51;100.00;99832.41;5050303;28;20083;-67
2022/08/27 04:38:00;;;;;;;24.67;14.45;;;;;;;21.50;100.00;99832.53;5050815;28;20025;-67
2022/08/27 04:41:18;;;;;;;24.70;14.32;;;;;;;21.48;100.00;99829.06;5051836;28;20480;-67
2022/08/27 04:43:13;;;;;;;25.00;13.82;;;;;;;21.47;100.00;99828.22;5051697;28;20083;-67
2022/08/27 04:45:49;;;;;;;23.85;14.05;;;;;;;21.43;100.00;99820.47;5051712;28;20025;-68
2022/08/27 04:48:16;;;;;;;22.60;13.23;;;;;;;21.47;100.00;99825.50;5051683;28;20025;-68
2022/08/27 04:50:43;;;;;;;26.08;13.43;;;;;;;21.51;100.00;99828.81;5051712;28;20123;-68
2022/08/27 04:53:11;;;;;;;27.13;14.85;;;;;;;21.45;100.00;99818.50;5041387;28;20135;-68
2022/08/27 04:55:43;;;;;;;25.67;14.60;;;;;;;21.51;100.00;99827.00;5051388;28;20082;-68
2022/08/27 04:58:09;;;;;;;23.52;13.48;;;;;;;21.54;100.00;99823.16;5051624;28;20032;-68
2022/08/27 05:00:43;;;;;;;25.33;13.32;;;;;;;21.52;100.00;99822.41;5051338;28;20032;-68
2022/08/27 05:03:09;;;;;;;25.75;14.25;;;;;;;21.56;100.00;99826.63;5051271;28;20021;-68
2022/08/27 05:05:34;;;;;;;25.08;15.40;;;;;;;21.56;100.00;99826.63;5051529;28;20496;-68
2022/08/27 05:08:00;;;;;;;33.45;15.07;;;;;;;21.56;100.00;99832.03;5051561;28;20033;-68
2022/08/27 05:10:25;;;;;;;27.33;14.70;;;;;;;21.57;100.00;99833.75;5051020;28;20037;-68
2022/08/27 05:12:51;;;;;;;27.90;14.45;;;;;;;21.59;100.00;99831.78;5051539;28;20024;-68
2022/08/27 05:15:16;;;;;;;25.92;14.30;;;;;;;21.63;100.00;99838.69;5051352;28;20084;-68
2022/08/27 05:17:42;;;;;;;28.25;15.25;;;;;;;21.66;100.00;99838.44;5051126;28;20099;-68
2022/08/27 05:20:09;;;;;;;23.80;14.07;;;;;;;21.71;100.00;99838.91;5051131;28;20028;-68
2022/08/27 05:22:34;;;;;;;26.55;14.82;;;;;;;21.74;100.00;99831.41;5050922;28;20020;-68
2022/08/27 05:25:00;;;;;;;26.88;14.18;;;;;;;21.75;100.00;99837.66;5049159;28;20032;-68
2022/08/27 05:27:25;;;;;;;32.40;15.15;;;;;;;21.74;100.00;99831.41;5049414;28;20021;-67
2022/08/27 05:29:51;;;;;;;27.75;15.20;;;;;;;21.71;100.00;99828.94;5049230;28;20112;-67
2022/08/27 05:32:16;;;;;;;32.88;15.20;;;;;;;21.71;100.00;99828.94;5050730;28;20086;-68
2022/08/27 05:34:42;;;;;;;27.83;14.52;;;;;;;21.72;100.00;99830.66;5048862;28;20121;-67
2022/08/27 05:37:08;;;;;;;30.83;13.77;;;;;;;21.76;100.00;99834.00;5051922;28;20111;-68
2022/08/27 05:39:34;;;;;;;26.08;14.50;;;;;;;21.86;100.00;99832.28;5052772;28;20052;-68
2022/08/27 05:41:59;;;;;;;29.02;14.15;;;;;;;21.92;100.00;99834.50;5053307;28;20025;-68
2022/08/27 05:44:24;;;;;;;23.15;14.02;;;;;;;21.94;100.00;99840.66;5053444;28;20416;-68
2022/08/27 05:46:50;;;;;;;26.55;13.98;;;;;;;21.97;100.00;99832.25;5053551;28;20033;-68
2022/08/27 05:49:15;;;;;;;24.98;14.30;;;;;;;21.94;100.00;99832.53;5054303;28;20024;-68
2022/08/27 05:51:41;;;;;;;26.65;13.77;;;;;;;21.95;100.00;99823.41;5055006;28;20108;-68
2022/08/27 05:54:17;;;;;;;27.20;14.40;;;;;;;21.99;100.00;99830.31;5053727;28;20045;-68
2022/08/27 05:56:43;;;;;;;23.45;13.52;;;;;;;22.04;100.00;99836.19;5052052;28;20469;-67
2022/08/27 06:01:54;;;;;;;25.25;13.45;;;;;;;22.05;100.00;99835.19;5051042;28;20407;-68
2022/08/27 06:04:22;;;;;;;21.13;12.93;;;;;;;22.03;100.00;99835.34;5050366;28;20032;-68
2022/08/27 06:06:48;;;;;;;26.90;14.43;;;;;;;21.98;100.00;99842.09;5050574;28;20663;-68
2022/08/27 06:09:17;;;;;;;26.17;13.93;;;;;;;22.01;100.00;99844.56;5051919;28;20647;-67
2022/08/27 06:11:43;;;;;;;24.63;15.05;;;;;;;22.02;100.00;99840.88;5053441;28;20032;-68
2022/08/27 06:14:11;;;;;;;24.65;14.40;;;;;;;21.98;100.00;99834.84;5056088;28;20488;-68
2022/08/27 06:16:37;;;;;;;24.80;12.50;;;;;;;22.03;100.00;99839.88;5055418;28;20050;-68
2022/08/27 06:19:03;;;;;;;23.73;14.15;;;;;;;22.05;100.00;99836.06;5054814;28;20455;-69
2022/08/27 06:21:28;;;;;;;25.88;15.48;;;;;;;22.09;100.00;99836.69;5054606;28;20423;-68
2022/08/27 06:23:54;;;;;;;30.20;14.60;;;;;;;22.12;100.00;99837.25;5054451;28;20019;-68
2022/08/27 06:26:22;;;;;;;27.77;15.13;;;;;;;22.17;100.00;99839.63;5054770;28;20116;-68
2022/08/27 06:28:48;;;;;;;25.48;14.95;;;;;;;22.19;100.00;99835.78;5054990;28;20108;-68
2022/08/27 06:31:25;;;;;;;28.13;15.07;;;;;;;22.33;100.00;99839.19;5054753;28;20024;-68
2022/08/27 06:33:53;;;;;;;28.77;15.52;;;;;;;22.37;100.00;99841.53;5054541;28;20024;-69
2022/08/27 06:36:23;;;;;;;28.10;15.00;;;;;;;22.40;100.00;99841.28;5054803;28;20040;-68
2022/08/27 06:38:49;;;;;;;26.67;15.40;;;;;;;22.37;100.00;99844.25;5047671;28;20029;-68
2022/08/27 06:41:19;;;;;;;24.50;15.10;;;;;;;22.42;100.00;99844.69;5054830;28;20032;-68
2022/08/27 06:43:45;;;;;;;30.27;15.77;;;;;;;22.46;100.00;99840.75;5054727;28;20325;-69
2022/08/27 06:46:15;;;;;;;29.02;14.27;;;;;;;22.48;100.00;99838.78;5053925;28;20021;-68
2022/08/27 06:48:43;;;;;;;29.58;16.60;;;;;;;22.50;100.00;99836.81;5054076;28;20079;-69
2022/08/27 06:51:15;;;;;;;30.00;15.68;;;;;;;22.55;100.00;99839.16;5057026;28;20079;-69
2022/08/27 06:53:42;;;;;;;35.25;15.90;;;;;;;22.59;100.00;99838.75;5055750;28;20102;-69
2022/08/27 06:56:10;;;;;;;28.73;15.40;;;;;;;22.58;100.00;99834.34;5053928;28;20458;-69
2022/08/27 06:58:35;;;;;;;28.45;15.27;;;;;;;22.58;100.00;99844.31;5053787;28;20051;-68
2022/08/27 07:01:09;;;;;;;26.73;15.07;;;;;;;22.60;100.00;99843.16;5053076;28;20472;-68
2022/08/27 07:03:35;;;;;;;28.05;15.25;;;;;;;22.64;100.00;99841.94;5052433;28;20086;-68
2022/08/27 07:06:05;;;;;;;24.38;14.43;;;;;;;22.57;100.00;99842.59;5052860;28;20333;-69
2022/08/27 07:08:30;;;;;;;24.95;14.27;;;;;;;22.59;100.00;99851.44;5052827;28;20100;-69
2022/08/27 07:10:56;;;;;;;25.10;15.52;;;;;;;22.62;100.00;99845.78;5052794;28;20025;-69
2022/08/27 07:13:22;;;;;;;24.98;14.45;;;;;;;22.64;100.00;99850.06;5052171;28;20035;-69
2022/08/27 07:15:47;;;;;;;28.63;15.20;;;;;;;22.65;100.00;99846.34;5053032;28;20029;-69
2022/08/27 07:18:13;;;;;;;24.63;14.57;;;;;;;22.66;100.00;99847.22;5053786;28;20027;-69
2022/08/27 07:20:40;;;;;;;27.38;15.70;;;;;;;22.70;100.00;99854.97;5053535;28;20051;-68
2022/08/27 07:23:06;;;;;;;27.02;14.10;;;;;;;22.75;100.00;99850.00;5053714;28;20027;-69
2022/08/27 07:25:31;;;;;;;27.67;14.60;;;;;;;22.79;100.00;99854.19;5055176;28;20421;-69
2022/08/27 07:27:58;;;;;;;27.17;14.35;;;;;;;22.84;100.00;99856.50;5054022;28;20365;-69
2022/08/27 07:30:24;;;;;;;27.90;16.02;;;;;;;22.85;100.00;99845.53;5054116;28;20020;-69
2022/08/27 07:32:50;;;;;;;23.00;13.95;;;;;;;22.97;100.00;99852.63;5053891;28;20311;-68
2022/08/27 07:35:15;;;;;;;27.05;15.00;;;;;;;23.02;100.00;99858.50;5053763;28;20127;-69
2022/08/27 07:37:41;;;;;;;24.30;15.40;;;;;;;23.05;100.00;99858.25;5054818;28;20057;-70
2022/08/27 07:40:11;;;;;;;27.80;15.45;;;;;;;23.09;100.00;99857.00;5054028;28;20024;-69
2022/08/27 07:45:22;;;;;;;26.15;14.68;;;;;;;23.15;100.00;99861.88;5054255;28;20109;-68
2022/08/27 07:47:48;;;;;;;25.67;15.40;;;;;;;23.20;100.00;99858.75;5054023;28;20037;-69
2022/08/27 07:50:14;;;;;;;25.98;15.18;;;;;;;23.29;100.00;99868.88;5054391;28;20531;-69
2022/08/27 07:52:42;;;;;;;26.05;15.25;;;;;;;23.35;100.00;99869.19;5055644;28;20108;-69
2022/08/27 07:55:12;;;;;;;25.83;15.25;;;;;;;23.43;100.00;99872.09;5052722;28;20032;-69
2022/08/27 07:57:38;;;;;;;25.90;14.50;;;;;;;23.50;100.00;99877.84;5054527;28;20029;-69
2022/08/27 08:00:07;;;;;;;28.30;15.13;;;;;;;23.54;100.00;99871.16;5053968;28;20400;-69
2022/08/27 08:02:33;;;;;;;28.17;16.58;;;;;;;23.58;100.00;99863.59;5054408;28;20154;-68
2022/08/27 08:04:59;;;;;;;25.13;15.23;;;;;;;23.56;100.00;99871.88;5053696;28;20445;-68
2022/08/27 08:07:24;;;;;;;25.23;14.40;;;;;;;23.52;100.00;99869.56;5054167;28;20040;-69
2022/08/27 08:09:50;;;;;;;25.80;15.18;;;;;;;23.43;100.00;99876.66;5056992;28;20081;-69
2022/08/27 08:12:16;;;;;;;26.52;14.90;;;;;;;23.37;100.00;99872.66;5054647;28;20066;-70
2022/08/27 08:14:41;;;;;;;23.83;15.18;;;;;;;23.34;100.00;99875.59;5053172;28;20025;-69
2022/08/27 08:17:07;;;;;;;27.63;15.73;;;;;;;23.31;100.00;99881.31;5052306;28;20029;-69
2022/08/27 08:19:32;;;;;;;27.98;14.60;;;;;;;23.30;100.00;99885.03;5051294;28;20104;-69
2022/08/27 08:21:59;;;;;;;27.48;15.00;;;;;;;23.24;100.00;99880.06;5050549;28;20491;-69
2022/08/27 08:24:25;;;;;;;25.67;14.02;;;;;;;23.24;100.00;99881.94;5050238;28;20017;-70
2022/08/27 08:26:50;;;;;;;24.77;14.35;;;;;;;23.20;100.00;99884.06;5050003;28;20045;-69
2022/08/27 08:29:16;;;;;;;25.17;15.00;;;;;;;23.15;100.00;99889.03;5050205;28;20021;-69
2022/08/27 08:31:42;;;;;;;23.52;14.85;;;;;;;23.10;100.00;99894.00;5049966;28;20464;-68
2022/08/27 08:34:08;;;;;;;25.48;14.65;;;;;;;23.08;100.00;99887.00;5051624;28;20102;-69
2022/08/27 08:36:34;;;;;;;26.00;14.90;;;;;;;23.03;100.00;99895.50;5051566;28;20029;-70
2022/08/27 08:38:59;;;;;;;26.13;15.02;;;;;;;22.98;100.00;99896.91;5051482;28;20369;-69
2022/08/27 08:41:31;;;;;;;23.88;15.57;;;;;;;22.99;100.00;99899.47;5051877;28;20025;-69
2022/08/27 08:43:58;;;;;;;24.60;14.65;;;;;;;23.00;100.00;99893.06;5051635;28;20025;-69
2022/08/27 08:46:38;;;;;;;24.77;15.52;;;;;;;23.03;100.00;99892.78;5051552;28;20033;-68
2022/08/27 08:49:22;;;;;;;25.90;14.43;;;;;;;23.06;100.00;99899.81;5051922;28;20021;-69
2022/08/27 08:51:48;;;;;;;28.92;15.07;;;;;;;23.11;100.00;99903.00;5051522;28;20035;-69
2022/08/27 08:54:23;;;;;;;30.42;14.98;;;;;;;23.14;100.00;99908.16;5050934;28;20041;-69
2022/08/27 08:57:02;;;;;;;26.63;15.73;;;;;;;23.15;100.00;99910.75;5051042;28;20033;-69
2022/08/27 08:59:36;;;;;;;26.52;15.10;;;;;;;23.17;100.00;99911.47;5051560;28;20086;-69
2022/08/27 09:02:05;;;;;;;28.05;15.98;;;;;;;23.23;100.00;99912.78;5051557;28;20531;-69
2022/08/27 09:04:30;;;;;;;26.45;15.00;;;;;;;23.29;100.00;99912.31;5050101;28;20380;-70
2022/08/27 09:06:59;;;;;;;30.00;16.40;;;;;;;23.34;100.00;99913.59;5049814;28;20024;-69
2022/08/27 09:09:36;;;;;;;28.38;15.82;;;;;;;23.33;100.00;99911.91;5051348;28;20040;-69
2022/08/27 09:12:18;;;;;;;25.10;14.60;;;;;;;23.22;100.00;99897.50;5050945;28;20024;-69
2022/08/27 09:14:53;;;;;;;27.15;14.30;;;;;;;23.31;100.00;99922.03;5051112;28;20031;-69
2022/08/27 09:17:18;;;;;;;27.73;14.85;;;;;;;23.27;100.00;99919.72;5051158;28;20021;-69
2022/08/27 09:19:44;;;;;;;26.10;14.35;;;;;;;23.20;100.00;99923.91;5051360;28;20039;-69
2022/08/27 09:23:03;;;;;;;22.35;14.43;;;;;;;23.06;100.00;99927.78;5051170;28;20102;-69
2022/08/27 09:25:35;;;;;;;28.55;14.77;;;;;;;22.82;100.00;99929.88;5019497;28;20033;-70
2022/08/27 09:28:05;;;;;;;24.25;13.63;;;;;;;22.73;100.00;99925.25;5030911;28;20439;-70
2022/08/27 09:30:40;;;;;;;23.23;14.18;;;;;;;22.60;100.00;99931.81;5031217;28;20511;-70
2022/08/27 09:33:05;;;;;;;25.02;13.73;;;;;;;22.56;100.00;99923.06;5040704;28;20020;-70
2022/08/27 09:35:44;;;;;;;24.90;15.02;;;;;;;22.56;100.00;99928.50;5052028;28;20070;-69
2022/08/27 09:38:12;;;;;;;26.65;15.10;;;;;;;22.54;100.00;99918.75;5051217;28;20032;-68
2022/08/27 09:40:43;;;;;;;27.77;15.75;;;;;;;22.63;100.00;99929.72;5051154;28;20048;-69
2022/08/27 09:43:14;;;;;;;24.13;14.60;;;;;;;22.70;100.00;99928.19;5049872;28;20028;-69
2022/08/27 09:45:47;;;;;;;24.48;14.98;;;;;;;22.70;100.00;99930.91;5051262;28;20575;-68
2022/08/27 09:48:17;;;;;;;30.13;15.90;;;;;;;22.73;100.00;99927.97;5068505;28;20020;-69
2022/08/27 09:50:53;;;;;;;20.95;13.65;;;;;;;22.61;100.00;99934.41;5052712;28;20515;-68
2022/08/27 09:53:24;;;;;;;21.90;12.73;;;;;;;22.52;100.00;99937.81;5050513;28;20572;-68
2022/08/27 09:55:55;;;;;;;23.38;14.00;;;;;;;22.50;100.00;99934.41;5050896;28;20792;-69
2022/08/27 09:58:28;;;;;;;21.67;13.65;;;;;;;22.56;100.00;99938.47;5050903;28;20029;-68
2022/08/27 10:01:14;;;;;;;21.50;12.53;;;;;;;22.59;100.00;99941.78;5050910;28;20025;-69
2022/08/27 10:03:41;;;;;;;26.98;15.02;;;;;;;22.53;100.00;99945.00;5050701;28;20028;-68
2022/08/27 10:06:07;;;;;;;22.95;13.80;;;;;;;22.54;100.00;99949.44;5050914;28;20078;-68
2022/08/27 10:08:49;;;;;;;23.40;13.80;;;;;;;22.55;100.00;99948.47;5050639;28;20087;-68
2022/08/27 10:11:30;;;;;;;22.73;13.98;;;;;;;22.55;100.00;99948.47;5051264;28;20460;-68
2022/08/27 10:14:00;;;;;;;23.00;13.90;;;;;;;22.58;100.00;99947.34;5050689;28;20037;-68
2022/08/27 10:16:49;;;;;;;20.77;13.30;;;;;;;22.56;100.00;99950.19;5053170;28;20025;-69
2022/08/27 10:19:20;;;;;;;24.20;13.73;;;;;;;22.60;100.00;99950.78;5050630;28;20032;-69
2022/08/27 10:21:57;;;;;;;22.42;14.30;;;;;;;22.63;100.00;99948.69;5050693;28;20380;-69
2022/08/27 10:24:31;;;;;;;27.20;14.55;;;;;;;22.56;100.00;99950.19;5053910;28;20056;-69
2022/08/27 10:27:05;;;;;;;21.80;14.82;;;;;;;22.59;100.00;99958.06;5054340;28;20024;-69
2022/08/27 10:29:48;;;;;;;21.27;12.55;;;;;;;22.61;100.00;99958.78;5053946;28;20108;-69
2022/08/27 10:32:24;;;;;;;18.08;10.98;;;;;;;22.49;100.00;99956.22;5054239;28;20064;-69
2022/08/27 10:35:04;;;;;;;18.75;11.38;;;;;;;22.50;100.00;99953.38;5053887;28;20090;-68
2022/08/27 10:37:47;;;;;;;20.25;12.55;;;;;;;22.61;100.00;99955.22;5053687;28;20094;-68
2022/08/27 10:40:16;;;;;;;21.25;12.70;;;;;;;22.69;100.00;99953.59;5053808;28;20025;-69
2022/08/27 10:43:08;;;;;;;18.92;11.80;;;;;;;22.73;100.00;99957.78;5053737;28;20024;-68
2022/08/27 10:45:33;;;;;;;18.85;12.13;;;;;;;22.86;100.00;99958.47;5022524;28;20037;-68
2022/08/27 10:48:23;;;;;;;23.70;12.50;;;;;;;22.97;100.00;99950.28;5053818;28;20104;-68
2022/08/27 10:50:55;;;;;;;19.67;12.27;;;;;;;23.00;100.00;99952.75;5053902;28;20028;-68
2022/08/27 10:53:54;;;;;;;18.77;12.97;;;;;;;23.05;100.00;99953.22;5052748;28;20091;-67
2022/08/27 10:56:42;;;;;;;21.27;13.63;;;;;;;23.10;100.00;99956.41;5033150;28;20041;-68
2022/08/27 10:59:35;;;;;;;21.45;13.25;;;;;;;23.05;100.00;99946.91;5053557;28;20536;-67
2022/08/27 11:02:06;;;;;;;20.42;11.93;;;;;;;23.09;100.00;99951.97;5053773;28;20593;-67
2022/08/27 11:04:38;;;;;;;21.02;12.05;;;;;;;23.13;100.00;99956.13;5053353;28;20392;-67
2022/08/27 11:07:10;;;;;;;25.23;12.88;;;;;;;23.19;100.00;99950.22;5053452;28;20574;-67
2022/08/27 11:09:51;;;;;;;21.53;11.97;;;;;;;23.18;100.00;99942.16;5053411;28;20036;-67
2022/08/27 11:12:24;;;;;;;18.60;11.48;;;;;;;23.24;100.00;99947.09;5053420;28;20083;-67
2022/08/27 11:14:52;;;;;;;21.63;12.52;;;;;;;23.23;100.00;99943.50;5053255;28;20094;-67
2022/08/27 11:17:35;;;;;;;22.45;13.05;;;;;;;23.29;100.00;99945.72;5053142;28;20032;-66
2022/08/27 11:20:10;;;;;;;19.27;12.15;;;;;;;23.34;100.00;99943.47;5053268;28;20033;-66
2022/08/27 11:22:41;;;;;;;19.45;11.30;;;;;;;23.31;100.00;99938.31;5052861;28;20036;-66
2022/08/27 11:25:21;;;;;;;20.17;12.15;;;;;;;23.20;100.00;99943.78;5052987;28;20074;-66
2022/08/27 11:27:50;;;;;;;23.75;12.55;;;;;;;23.14;100.00;99940.72;5053000;28;20029;-65
2022/08/27 11:30:36;;;;;;;21.55;11.48;;;;;;;23.08;100.00;99933.94;5053115;28;20077;-65